Flight Track Log - Related Links

Times and Time Zones

All times are in EDT time to prevent confusion due to time zone crossing. See the ASQ5941 flight status page for this flight to view local times or setup timezone preferences in your user account.

Time Position Orientation Groundspeed Altitude Reporting Facility
EDT Latitude Longitude Course Direction KTS MPH feet Rate Location/Type
Tue 05:01:48 PM 41.2967 -75.8411 286° West 189 217 6,900  Level New York Center
Tue 05:02:46 PM 41.3689 -75.8547 352° North 177 204 7,900 864 Climbing New York Center
Tue 05:03:46 PM 41.4456 -75.8633 355° North 224 258 8,600 1,636 Climbing New York Center
Tue 05:04:47 PM 41.5244 -75.8722 355° North 252 290 11,200 2,579 Climbing New York Center
Tue 05:05:00 PM 41.5033 -76.0655 315° West  Level FlightAware Approximate
Tue 05:05:47 PM 41.6083 -75.9061 343° North 296 341 13,800  Level New York Center
Tue 05:06:00 PM 41.5767 -76.1518 306° West  Level FlightAware Approximate
Tue 05:06:48 PM 41.6269 -75.9992 285° West 238 274 16,800  Level New York Center
Tue 05:07:48 PM 41.6461 -76.0842 287° West 256 295 18,300 1,456 Climbing New York Center
Tue 05:09:00 PM 41.6584 -76.2387 307° West  Level Estimated
Tue 05:10:47 PM 41.7428 -76.4281 289° West 328 377 22,600  Level New York Center
Tue 05:12:00 PM 41.7538 -76.5851 275° West  Level Estimated
Tue 05:13:03 PM 41.8239 -76.7153 275° West 346 398 25,300  Level Cleveland Center
Tue 05:14:03 PM 41.8572 -76.8386 290° West 385 443 26,800 1,550 Climbing Cleveland Center
Tue 05:15:03 PM 41.8906 -76.9622 290° West 375 432 28,400 1,700 Climbing Cleveland Center
Tue 05:16:00 PM 41.7259 -77.1411 289° West  Level Estimated
Tue 05:16:03 PM 41.9233 -77.0833 290° West 362 417 30,200  Level Cleveland Center
Tue 05:17:03 PM 41.9561 -77.2017 290° West 349 402 31,900 900 Climbing Cleveland Center
Tue 05:18:03 PM 41.9889 -77.3256 290° West 349 402 32,000 350 Climbing Cleveland Center
Tue 05:19:03 PM 42.0261 -77.4608 290° West 365 420 32,600 900 Climbing Cleveland Center
Tue 05:20:03 PM 42.0539 -77.5656 290° West 371 427 33,800 1,300 Climbing Cleveland Center
Tue 05:21:03 PM 42.0908 -77.7067 289° West 371 427 35,200 1,100 Climbing Cleveland Center
Tue 05:22:03 PM 42.1231 -77.8339 289° West 371 427 36,000 400 Climbing Cleveland Center
Tue 05:23:03 PM 42.1575 -77.9642 290° West 371 427 36,000  Level Cleveland Center
Tue 05:24:03 PM 42.1936 -78.0972 290° West 371 427 36,000  Level Cleveland Center
Tue 05:25:03 PM 42.2278 -78.2333 289° West 376 433 36,000  Level Cleveland Center
Tue 05:26:03 PM 42.2617 -78.3667 289° West 381 438 36,000  Level Cleveland Center
Tue 05:27:03 PM 42.2975 -78.5003 290° West 381 438 36,000  Level Cleveland Center
Tue 05:28:03 PM 42.3311 -78.6367 288° West 381 438 36,000  Level Cleveland Center
Tue 05:29:03 PM 42.3647 -78.7706 289° West 381 438 36,000  Level Cleveland Center
Tue 05:30:03 PM 42.4022 -78.9131 290° West 381 438 36,000  Level Cleveland Center
Tue 05:31:03 PM 42.4353 -79.0472 289° West 381 438 36,000  Level Cleveland Center
Tue 05:32:03 PM 42.4683 -79.1703 290° West 383 441 36,000  Level Cleveland Center
Tue 05:33:03 PM 42.4928 -79.3047 284° West 376 433 36,000  Level Cleveland Center
Tue 05:34:03 PM 42.5025 -79.4456 275° West 376 433 36,000  Level Cleveland Center
Tue 05:35:03 PM 42.5081 -79.5861 273° West 370 426 36,000  Level Cleveland Center
Tue 05:36:03 PM 42.5153 -79.7242 274° West 370 426 36,000  Level Cleveland Center
Tue 05:37:03 PM 42.5206 -79.8592 273° West 365 420 36,000  Level Cleveland Center
Tue 05:38:03 PM 42.5233 -79.9917 272° West 360 414 36,000  Level Cleveland Center
Tue 05:39:03 PM 42.5303 -80.1267 274° West 360 414 36,000  Level Cleveland Center
Tue 05:40:03 PM 42.5369 -80.2703 274° West 366 421 36,000  Level Cleveland Center
Tue 05:41:03 PM 42.5433 -80.4056 274° West 355 409 36,000  Level Cleveland Center
Tue 05:42:03 PM 42.5456 -80.5325 271° West 350 403 36,000  Level Cleveland Center
Tue 05:43:03 PM 42.5539 -80.6650 275° West 350 403 36,000  Level Cleveland Center
Tue 05:44:03 PM 42.5581 -80.7917 273° West 338 389 36,000  Level Cleveland Center
Tue 05:45:03 PM 42.5639 -80.9272 273° West 349 402 36,000  Level Cleveland Center
Tue 05:46:03 PM 42.5675 -81.0539 272° West 349 402 36,000  Level Cleveland Center
Tue 05:47:03 PM 42.5733 -81.1864 273° West 349 402 36,000  Level Cleveland Center
Tue 05:48:03 PM 42.5767 -81.3161 272° West 349 402 36,000  Level Cleveland Center
Tue 05:49:03 PM 42.5842 -81.4489 274° West 349 402 36,000  Level Cleveland Center
Tue 05:50:03 PM 42.6039 -81.5761 282° West 349 402 36,000  Level Cleveland Center
Tue 05:51:03 PM 42.6278 -81.7064 284° West 354 407 36,000  Level Cleveland Center
Tue 05:52:03 PM 42.6472 -81.8308 282° West 354 407 36,000  Level Cleveland Center
Tue 05:53:03 PM 42.6708 -81.9611 284° West 354 407 36,000  Level Cleveland Center
Tue 05:54:03 PM 42.6942 -82.0861 284° West 354 407 36,000  Level Cleveland Center
Tue 05:55:03 PM 42.7175 -82.2167 284° West 354 407 36,000  Level Cleveland Center
Tue 05:56:03 PM 42.7383 -82.3472 282° West 354 407 36,000  Level Cleveland Center
Tue 05:57:03 PM 42.7594 -82.4750 283° West 354 407 36,000  Level Cleveland Center
Tue 05:58:03 PM 42.7822 -82.6058 283° West 354 407 36,000  Level Cleveland Center
Tue 05:59:03 PM 42.8028 -82.7339 282° West 354 407 36,000  Level Cleveland Center
Tue 06:00:03 PM 42.8253 -82.8647 283° West 354 407 36,000 -200 Level Cleveland Center
Tue 06:01:03 PM 42.8456 -82.9958 282° West 354 407 35,600 -750 Descending Cleveland Center
Tue 06:02:03 PM 42.8656 -83.1297 282° West 359 413 34,500 -1,100 Descending Cleveland Center
Tue 06:03:03 PM 42.8875 -83.2611 283° West 359 413 33,400 -1,100 Descending Cleveland Center
Tue 06:04:03 PM 42.9094 -83.3925 283° West 359 413 32,300 -1,100 Descending Cleveland Center
Tue 06:05:03 PM 42.9292 -83.5239 282° West 359 413 31,200 -1,100 Descending Cleveland Center
Tue 06:06:03 PM 42.9489 -83.6494 282° West 359 413 30,100 -600 Descending Cleveland Center
Tue 06:07:03 PM 42.9578 -83.7806 275° West 359 413 30,000 -50 Descending Cleveland Center
Tue 06:08:03 PM 42.9497 -83.9133 265° West 353 406 30,000  Level Cleveland Center
Tue 06:09:03 PM 42.9461 -84.0436 268° West 347 399 30,000  Level Cleveland Center
Tue 06:11:06 PM 42.9164 -84.3181 262° West 358 412 30,000  Level Chicago Center
Tue 06:12:08 PM 42.8994 -84.4553 260° West 367 422 30,000  Level Chicago Center
Tue 06:13:10 PM 42.8831 -84.5936 261° West 370 426 30,000  Level Chicago Center
Tue 06:15:14 PM 42.8517 -84.9019 262° West 374 430 30,000  Level Chicago Center
Tue 06:16:16 PM 42.8361 -85.0411 261° West 373 429 30,000  Level Chicago Center
Tue 06:17:18 PM 42.8222 -85.1831 262° West 377 434 30,000  Level Chicago Center
Tue 06:18:21 PM 42.8056 -85.3239 261° West 378 435 30,000  Level Chicago Center
Tue 06:19:23 PM 42.7908 -85.4642 262° West 375 432 30,000 -581 Level Chicago Center
Tue 06:20:25 PM 42.7669 -85.6047 257° West 378 435 28,800 -1,500 Descending Chicago Center
Tue 06:21:27 PM 42.7414 -85.7478 256° West 383 441 26,900 -2,129 Descending Chicago Center
Tue 06:22:29 PM 42.7100 -85.9181 256° West 385 443 24,400 -2,177 Descending Chicago Center
Tue 06:23:31 PM 42.6853 -86.0586 257° West 383 441 22,400 -1,887 Descending Chicago Center
Tue 06:24:33 PM 42.6617 -86.1903 256° West 367 422 20,500 -1,161 Descending Chicago Center
Tue 06:25:35 PM 42.6367 -86.3175 255° West 352 405 20,000 -242 Descending Chicago Center
Tue 06:26:37 PM 42.6119 -86.4494 256° West 358 412 20,000  Level Chicago Center
Tue 06:27:39 PM 42.5869 -86.5842 256° West 366 421 20,000 -677 Level Chicago Center
Tue 06:28:41 PM 42.5583 -86.7422 256° West 361 415 18,600 -1,488 Descending Chicago Center
Tue 06:29:44 PM 42.5261 -86.8581 249° West 341 392 16,900 -1,872 Descending Chicago Center
Tue 06:30:46 PM 42.4947 -86.9728 250° West 325 374 14,700 -2,177 Descending Chicago Center
Tue 06:31:48 PM 42.4622 -87.0861 249° West 322 371 12,400 -2,081 Descending Chicago Center
Tue 06:32:50 PM 42.4317 -87.2003 250° West 323 372 10,400 -1,210 Descending Chicago Center
Tue 06:33:52 PM 42.3994 -87.3147 249° West 326 375 9,900 -242 Descending Chicago Center
Tue 06:34:54 PM 42.3636 -87.4436 249° West 318 366 9,900 48 Level Chicago Center
Tue 06:35:56 PM 42.3242 -87.5483 243° Southwest 322 371 10,000  Climbing Chicago Center
Tue 06:36:58 PM 42.2531 -87.6258 219° Southwest 324 373 9,900  Descending Chicago Center
Tue 06:38:00 PM 42.1819 -87.7011 218° Southwest 325 374 10,000 -259 Climbing Chicago Center
Tue 06:38:54 PM 42.1167 -87.7667 217° Southwest 263 303 9,400 -1,250 Descending Chicago TRACON
Tue 06:40:00 PM 42.0833 -87.8667 246° West 257 296 7,500 -1,150 Descending Chicago TRACON
Tue 06:40:54 PM 42.0667 -87.9500 255° West 241 277 7,100 -421 Descending Chicago TRACON
Tue 06:41:54 PM 42.0667 -88.0167 270° West 210 242 6,700 -850 Descending Chicago TRACON
Tue 06:42:54 PM 42.0500 -88.1000 255° West 218 251 5,400 -1,228 Descending Chicago TRACON
Tue 06:44:01 PM 42.0167 -88.1667 236° Southwest 243 280 4,100 -942 Descending Chicago TRACON
Tue 06:44:55 PM 41.9833 -88.1333 143° Southeast 222 255 3,500 -750 Descending Chicago TRACON
Tue 06:46:01 PM 41.9667 -88.0500 105° East 195 224 2,600 -818 Descending Chicago TRACON

Login

Don't have an account? Register now (free) for customized features, flight alerts, and more!